Time;durP1;ratioP1;P1;durP2;ratioP2;P2;SDS_P1;SDS_P2;PMS_P1;PMS_P2;Temp;Humidity;BMP_temperature;BMP_pressure;BME280_temperature;BME280_humidity;BME280_pressure;Samples;Min_cycle;Max_cycle;Signal;HPM_P1;HPM_P2
2022/08/27 00:01:35;;;;;;;;;5.00;4.33;;;;;;;;5058490;28;51116;-63
2022/08/27 00:04:01;;;;;;;;;4.00;4.00;;;;;;;;5062727;28;52183;-63
2022/08/27 00:06:27;;;;;;;;;5.67;5.67;;;;;;;;5061242;28;51042;-63
2022/08/27 00:08:52;;;;;;;;;6.00;6.00;;;;;;;;5070233;28;51274;-63
2022/08/27 00:11:19;;;;;;;;;5.33;4.67;;;;;;;;5064008;28;51288;-64
2022/08/27 00:13:45;;;;;;;;;5.00;5.00;;;;;;;;5061464;28;51332;-63
2022/08/27 00:16:10;;;;;;;;;4.33;4.33;;;;;;;;5070543;28;51278;-63
2022/08/27 00:18:36;;;;;;;;;3.67;3.33;;;;;;;;5071827;27;51148;-64
2022/08/27 00:21:02;;;;;;;;;3.67;3.67;;;;;;;;5072826;28;50981;-62
2022/08/27 00:23:27;;;;;;;;;7.00;5.00;;;;;;;;5074509;28;51086;-63
2022/08/27 00:25:53;;;;;;;;;5.00;5.00;;;;;;;;5072581;28;51099;-63
2022/08/27 00:28:18;;;;;;;;;5.00;4.00;;;;;;;;5069086;28;51140;-63
2022/08/27 00:30:43;;;;;;;;;4.33;4.33;;;;;;;;5070028;28;51609;-65
2022/08/27 00:33:08;;;;;;;;;4.00;4.00;;;;;;;;5063322;28;52306;-63
2022/08/27 00:35:34;;;;;;;;;5.67;5.00;;;;;;;;5074659;27;51030;-63
2022/08/27 00:38:00;;;;;;;;;5.00;5.00;;;;;;;;5074861;28;50906;-63
2022/08/27 00:40:26;;;;;;;;;4.00;4.00;;;;;;;;5073223;28;51059;-63
2022/08/27 00:42:51;;;;;;;;;4.00;4.00;;;;;;;;5071557;28;51853;-63
2022/08/27 00:45:19;;;;;;;;;4.67;4.67;;;;;;;;5068438;27;51068;-63
2022/08/27 00:47:47;;;;;;;;;5.00;5.00;;;;;;;;5068065;28;51083;-63
2022/08/27 00:50:16;;;;;;;;;6.33;5.00;;;;;;;;5066604;27;51113;-63
2022/08/27 00:52:53;;;;;;;;;4.67;3.67;;;;;;;;5065339;28;51830;-63
2022/08/27 00:55:20;;;;;;;;;4.00;4.00;;;;;;;;5074274;28;51074;-63
2022/08/27 00:57:49;;;;;;;;;5.00;4.00;;;;;;;;5072928;28;51088;-63
2022/08/27 01:00:16;;;;;;;;;5.33;4.33;;;;;;;;5059279;28;51271;-63
2022/08/27 01:02:42;;;;;;;;;2.00;2.00;;;;;;;;5070051;27;52912;-64
2022/08/27 01:05:09;;;;;;;;;4.00;4.00;;;;;;;;5070913;28;50852;-63
2022/08/27 01:07:36;;;;;;;;;5.00;4.33;;;;;;;;5069995;28;51154;-63
2022/08/27 01:10:02;;;;;;;;;5.67;5.00;;;;;;;;5073647;28;51264;-62
2022/08/27 01:12:29;;;;;;;;;6.00;5.67;;;;;;;;5069000;28;52487;-63
2022/08/27 01:14:55;;;;;;;;;6.00;5.00;;;;;;;;5064040;28;51120;-62
2022/08/27 01:17:20;;;;;;;;;5.00;5.00;;;;;;;;5072779;28;51098;-63
2022/08/27 01:19:51;;;;;;;;;6.00;4.00;;;;;;;;5067447;28;51075;-62
2022/08/27 01:22:25;;;;;;;;;5.00;5.00;;;;;;;;5068301;28;51857;-63
2022/08/27 01:24:53;;;;;;;;;5.33;5.00;;;;;;;;5082432;27;51138;-63
2022/08/27 01:27:19;;;;;;;;;7.00;7.00;;;;;;;;5074088;27;51163;-62
2022/08/27 01:29:45;;;;;;;;;8.00;8.00;;;;;;;;5059191;28;51217;-63
2022/08/27 01:32:17;;;;;;;;;7.67;7.67;;;;;;;;5058704;28;51116;-63
2022/08/27 01:34:43;;;;;;;;;6.67;6.33;;;;;;;;5064412;28;50907;-63
2022/08/27 01:37:09;;;;;;;;;6.67;6.67;;;;;;;;5069681;28;51009;-63
2022/08/27 01:39:35;;;;;;;;;6.67;6.00;;;;;;;;5064968;27;50990;-63
2022/08/27 01:42:09;;;;;;;;;6.00;6.00;;;;;;;;5055278;28;51493;-63
2022/08/27 01:44:41;;;;;;;;;7.00;6.67;;;;;;;;5067887;28;51249;-63
2022/08/27 01:47:06;;;;;;;;;8.67;7.00;;;;;;;;5073808;28;51195;-64
2022/08/27 01:49:32;;;;;;;;;7.00;6.33;;;;;;;;5071960;28;51184;-64
2022/08/27 01:51:57;;;;;;;;;7.00;7.00;;;;;;;;5063955;28;52102;-64
2022/08/27 01:54:22;;;;;;;;;7.00;6.67;;;;;;;;5071865;28;50968;-63
2022/08/27 01:56:48;;;;;;;;;6.00;5.67;;;;;;;;5062383;28;51219;-65
2022/08/27 01:59:13;;;;;;;;;5.67;5.33;;;;;;;;5060031;28;51274;-64
2022/08/27 02:01:38;;;;;;;;;8.33;7.67;;;;;;;;5057915;28;51937;-64
2022/08/27 02:04:03;;;;;;;;;8.00;8.00;;;;;;;;5070409;28;51238;-63
2022/08/27 02:06:29;;;;;;;;;6.33;6.33;;;;;;;;5065284;28;52839;-63
2022/08/27 02:08:57;;;;;;;;;6.67;6.33;;;;;;;;5058846;28;51151;-64
2022/08/27 02:11:22;;;;;;;;;7.00;6.00;;;;;;;;5063584;28;51817;-64
2022/08/27 02:13:48;;;;;;;;;5.00;5.00;;;;;;;;5061579;28;51103;-64
2022/08/27 02:16:13;;;;;;;;;6.33;5.00;;;;;;;;5060706;28;50916;-65
2022/08/27 02:18:38;;;;;;;;;3.67;3.33;;;;;;;;5070807;28;50887;-65
2022/08/27 02:21:04;;;;;;;;;4.67;4.67;;;;;;;;5064583;28;51860;-64
2022/08/27 02:23:32;;;;;;;;;6.00;6.00;;;;;;;;5073505;28;51152;-65
2022/08/27 02:25:57;;;;;;;;;5.67;5.00;;;;;;;;5073581;28;51063;-64
2022/08/27 02:28:22;;;;;;;;;5.00;4.00;;;;;;;;5066845;28;51040;-63
2022/08/27 02:30:48;;;;;;;;;5.33;5.33;;;;;;;;5054527;28;53290;-63
2022/08/27 02:33:13;;;;;;;;;4.67;4.67;;;;;;;;5072293;28;51028;-63
2022/08/27 02:35:39;;;;;;;;;5.00;5.00;;;;;;;;5073390;27;51120;-63
2022/08/27 02:38:05;;;;;;;;;3.00;3.00;;;;;;;;5068105;28;51300;-64
2022/08/27 02:40:30;;;;;;;;;6.00;5.00;;;;;;;;5070115;28;51772;-63
2022/08/27 02:42:55;;;;;;;;;5.67;5.00;;;;;;;;5064380;28;51035;-63
2022/08/27 02:45:20;;;;;;;;;6.67;6.67;;;;;;;;5067614;27;51722;-63
2022/08/27 02:47:46;;;;;;;;;6.67;6.33;;;;;;;;5061565;28;51757;-64
2022/08/27 02:50:13;;;;;;;;;5.33;4.67;;;;;;;;5072427;28;51891;-62
2022/08/27 02:52:38;;;;;;;;;4.00;4.00;;;;;;;;5062621;27;51613;-63
2022/08/27 02:55:04;;;;;;;;;4.67;4.33;;;;;;;;5072842;28;51075;-63
2022/08/27 02:57:30;;;;;;;;;5.33;4.67;;;;;;;;5066925;28;51289;-63
2022/08/27 02:59:55;;;;;;;;;5.00;5.00;;;;;;;;5058896;28;52712;-65
2022/08/27 03:02:20;;;;;;;;;7.33;6.33;;;;;;;;5058236;28;51395;-64
2022/08/27 03:04:46;;;;;;;;;6.67;5.67;;;;;;;;5072661;28;51189;-65
2022/08/27 03:07:11;;;;;;;;;6.67;5.67;;;;;;;;5062135;28;51124;-64
2022/08/27 03:09:37;;;;;;;;;7.33;6.67;;;;;;;;5052317;28;52789;-62
2022/08/27 03:12:02;;;;;;;;;7.00;6.67;;;;;;;;5061282;28;51115;-63
2022/08/27 03:14:27;;;;;;;;;6.00;6.00;;;;;;;;5069747;27;53729;-62
2022/08/27 03:16:53;;;;;;;;;6.00;6.00;;;;;;;;5072695;28;51068;-63
2022/08/27 03:19:18;;;;;;;;;5.67;5.67;;;;;;;;5059365;28;51939;-64
2022/08/27 03:21:43;;;;;;;;;6.00;5.00;;;;;;;;5055523;28;51234;-63
2022/08/27 03:24:08;;;;;;;;;5.33;5.00;;;;;;;;5065262;28;51086;-63
2022/08/27 03:26:34;;;;;;;;;5.33;4.67;;;;;;;;5069072;28;51353;-65
2022/08/27 03:28:59;;;;;;;;;2.00;2.00;;;;;;;;5059020;27;51096;-63
2022/08/27 03:31:25;;;;;;;;;5.33;5.33;;;;;;;;5062235;27;51087;-63
2022/08/27 03:33:58;;;;;;;;;4.67;4.67;;;;;;;;5067688;28;51064;-64
2022/08/27 03:36:24;;;;;;;;;6.67;5.67;;;;;;;;5064174;28;52884;-64
2022/08/27 03:38:49;;;;;;;;;5.67;4.33;;;;;;;;5071927;28;51277;-63
2022/08/27 03:41:16;;;;;;;;;1.67;1.67;;;;;;;;5069641;28;51090;-63
2022/08/27 03:43:42;;;;;;;;;3.00;3.00;;;;;;;;5070000;28;50978;-63
2022/08/27 03:46:07;;;;;;;;;4.00;4.00;;;;;;;;5064381;27;51303;-63
2022/08/27 03:48:33;;;;;;;;;6.00;5.00;;;;;;;;5067150;28;50948;-63
2022/08/27 03:50:58;;;;;;;;;6.67;5.00;;;;;;;;5070204;28;50930;-63
2022/08/27 03:53:23;;;;;;;;;6.67;6.67;;;;;;;;5067831;27;51052;-64
2022/08/27 03:55:49;;;;;;;;;4.33;4.33;;;;;;;;5075213;28;51032;-64
2022/08/27 03:58:15;;;;;;;;;3.67;3.67;;;;;;;;5059530;28;53908;-64
2022/08/27 04:00:41;;;;;;;;;4.00;3.67;;;;;;;;5059088;28;50900;-64
2022/08/27 04:03:06;;;;;;;;;6.00;6.00;;;;;;;;5069060;28;51141;-64
2022/08/27 04:05:32;;;;;;;;;5.00;5.00;;;;;;;;5071509;28;51045;-63
2022/08/27 04:07:57;;;;;;;;;3.00;3.00;;;;;;;;5060603;28;51260;-64
2022/08/27 04:10:23;;;;;;;;;6.67;6.67;;;;;;;;5065669;28;51162;-63
2022/08/27 04:12:48;;;;;;;;;5.67;5.67;;;;;;;;5062251;28;51150;-63
2022/08/27 04:15:13;;;;;;;;;6.00;6.00;;;;;;;;5072134;28;52236;-64
2022/08/27 04:17:39;;;;;;;;;4.67;4.67;;;;;;;;5073050;28;52875;-64
2022/08/27 04:20:06;;;;;;;;;5.00;4.67;;;;;;;;5061262;28;51095;-64
2022/08/27 04:22:32;;;;;;;;;5.00;5.00;;;;;;;;5069373;28;51129;-64
2022/08/27 04:24:58;;;;;;;;;6.00;6.00;;;;;;;;5074598;27;51034;-64
2022/08/27 04:27:25;;;;;;;;;5.67;5.67;;;;;;;;5069370;28;52337;-62
2022/08/27 04:29:53;;;;;;;;;3.33;3.33;;;;;;;;5069995;28;50937;-64
2022/08/27 04:32:18;;;;;;;;;6.67;5.33;;;;;;;;5069079;28;51144;-64
2022/08/27 04:34:44;;;;;;;;;6.00;6.00;;;;;;;;5069703;28;51360;-63
2022/08/27 04:37:09;;;;;;;;;4.67;4.67;;;;;;;;5062922;28;51961;-63
2022/08/27 04:39:34;;;;;;;;;4.00;4.00;;;;;;;;5062575;28;51145;-63
2022/08/27 04:41:59;;;;;;;;;6.33;5.00;;;;;;;;5061835;28;51701;-63
2022/08/27 04:44:26;;;;;;;;;5.67;5.00;;;;;;;;5069524;28;51206;-63
2022/08/27 04:46:54;;;;;;;;;0.67;0.67;;;;;;;;5078369;27;52095;-62
2022/08/27 04:49:19;;;;;;;;;6.00;5.33;;;;;;;;5072794;27;50942;-63
2022/08/27 04:51:45;;;;;;;;;7.00;7.00;;;;;;;;5062375;28;51087;-63
2022/08/27 04:54:11;;;;;;;;;5.00;5.00;;;;;;;;5073471;28;51078;-62
2022/08/27 04:56:36;;;;;;;;;5.67;4.67;;;;;;;;5070075;27;51076;-62
2022/08/27 04:59:04;;;;;;;;;7.67;7.00;;;;;;;;5065157;27;51086;-63
2022/08/27 05:01:29;;;;;;;;;6.00;6.00;;;;;;;;5069547;28;51107;-63
2022/08/27 05:03:55;;;;;;;;;5.33;5.33;;;;;;;;5084921;27;51047;-63
2022/08/27 05:06:21;;;;;;;;;7.00;6.33;;;;;;;;5061872;28;51262;-64
2022/08/27 05:08:47;;;;;;;;;5.00;5.00;;;;;;;;5074403;28;51016;-64
2022/08/27 05:11:13;;;;;;;;;8.00;6.00;;;;;;;;5072345;27;50827;-63
2022/08/27 05:13:39;;;;;;;;;7.00;5.67;;;;;;;;5073463;28;51191;-63
2022/08/27 05:16:06;;;;;;;;;4.33;4.00;;;;;;;;5064889;28;52185;-63
2022/08/27 05:18:32;;;;;;;;;4.67;4.67;;;;;;;;5065683;28;51160;-64
2022/08/27 05:20:57;;;;;;;;;3.33;3.33;;;;;;;;5063720;27;51173;-64
2022/08/27 05:23:23;;;;;;;;;6.67;6.67;;;;;;;;5058841;28;53171;-64
2022/08/27 05:25:49;;;;;;;;;7.67;6.33;;;;;;;;5072766;28;52785;-63
2022/08/27 05:28:15;;;;;;;;;5.00;5.00;;;;;;;;5059837;28;51423;-64
2022/08/27 05:30:43;;;;;;;;;6.00;6.00;;;;;;;;5074053;28;51198;-64
2022/08/27 05:33:09;;;;;;;;;4.67;4.33;;;;;;;;5060162;28;51219;-63
2022/08/27 05:35:41;;;;;;;;;7.67;7.00;;;;;;;;5071899;28;52000;-64
2022/08/27 05:38:06;;;;;;;;;5.00;5.00;;;;;;;;5056373;28;53142;-64
2022/08/27 05:40:32;;;;;;;;;7.33;6.33;;;;;;;;5070978;28;51124;-64
2022/08/27 05:42:57;;;;;;;;;6.33;6.00;;;;;;;;5071894;27;51285;-64
2022/08/27 05:45:23;;;;;;;;;6.00;6.00;;;;;;;;5070749;28;52162;-64
2022/08/27 05:47:48;;;;;;;;;6.67;6.67;;;;;;;;5056616;28;51109;-64
2022/08/27 05:50:14;;;;;;;;;7.00;6.00;;;;;;;;5057682;28;51274;-64
2022/08/27 05:52:39;;;;;;;;;7.67;7.00;;;;;;;;5091906;27;51335;-62
2022/08/27 05:55:05;;;;;;;;;4.67;4.67;;;;;;;;5064579;28;50964;-63
2022/08/27 05:57:30;;;;;;;;;7.00;6.00;;;;;;;;5040495;28;51957;-64
2022/08/27 06:02:39;;;;;;;;;6.00;5.67;;;;;;;;5064715;27;51136;-64
2022/08/27 06:05:04;;;;;;;;;6.67;5.67;;;;;;;;5073333;28;50917;-64
2022/08/27 06:07:31;;;;;;;;;7.00;6.00;;;;;;;;5061008;27;51039;-64
2022/08/27 06:09:57;;;;;;;;;6.33;5.67;;;;;;;;5071486;28;51149;-64
2022/08/27 06:12:23;;;;;;;;;5.67;5.00;;;;;;;;5069505;28;51517;-64
2022/08/27 06:14:48;;;;;;;;;3.33;3.33;;;;;;;;5057796;28;52676;-64
2022/08/27 06:17:13;;;;;;;;;7.00;6.33;;;;;;;;5065273;28;50993;-64
2022/08/27 06:19:41;;;;;;;;;4.00;3.00;;;;;;;;5054922;28;51138;-64
2022/08/27 06:22:06;;;;;;;;;5.67;5.67;;;;;;;;5072383;28;50924;-66
2022/08/27 06:24:31;;;;;;;;;7.00;7.00;;;;;;;;5062728;28;51194;-65
2022/08/27 06:26:57;;;;;;;;;3.33;3.33;;;;;;;;5060265;28;51144;-64
2022/08/27 06:29:23;;;;;;;;;6.33;5.67;;;;;;;;5063189;28;50889;-64
2022/08/27 06:31:49;;;;;;;;;7.00;6.00;;;;;;;;5071791;27;51425;-64
2022/08/27 06:34:14;;;;;;;;;5.67;5.00;;;;;;;;5072651;28;52081;-64
2022/08/27 06:36:40;;;;;;;;;7.00;5.67;;;;;;;;5067193;28;50909;-63
2022/08/27 06:39:06;;;;;;;;;7.00;6.00;;;;;;;;5058230;28;51238;-64
2022/08/27 06:41:32;;;;;;;;;5.00;5.00;;;;;;;;5056919;28;51259;-64
2022/08/27 06:43:58;;;;;;;;;8.33;8.00;;;;;;;;5052940;27;52429;-64
2022/08/27 06:46:24;;;;;;;;;7.33;7.33;;;;;;;;5061357;27;51060;-64
2022/08/27 06:48:53;;;;;;;;;5.33;5.00;;;;;;;;5068928;27;51166;-64
2022/08/27 06:51:23;;;;;;;;;5.67;5.67;;;;;;;;5069218;28;51047;-64
2022/08/27 06:53:48;;;;;;;;;5.67;5.67;;;;;;;;5070368;27;51230;-64
2022/08/27 06:56:14;;;;;;;;;6.33;6.33;;;;;;;;5072636;28;51053;-64
2022/08/27 06:58:40;;;;;;;;;6.67;6.67;;;;;;;;5057800;27;51115;-64
2022/08/27 07:01:13;;;;;;;;;6.00;5.33;;;;;;;;5068386;28;51212;-64
2022/08/27 07:03:38;;;;;;;;;10.33;10.33;;;;;;;;5063100;27;53882;-64
2022/08/27 07:06:04;;;;;;;;;5.33;5.00;;;;;;;;5049698;27;51158;-64
2022/08/27 07:08:30;;;;;;;;;5.33;5.33;;;;;;;;5047465;28;51174;-66
2022/08/27 07:10:56;;;;;;;;;5.00;5.00;;;;;;;;5071159;28;51020;-65
2022/08/27 07:13:21;;;;;;;;;3.67;3.67;;;;;;;;5062003;28;52747;-65
2022/08/27 07:15:46;;;;;;;;;6.00;5.00;;;;;;;;5066476;28;50917;-65
2022/08/27 07:18:12;;;;;;;;;4.67;4.67;;;;;;;;5068466;28;51165;-65
2022/08/27 07:20:39;;;;;;;;;6.00;6.00;;;;;;;;5054119;27;51161;-65
2022/08/27 07:23:04;;;;;;;;;15.67;15.33;;;;;;;;5065973;28;52342;-65
2022/08/27 07:25:31;;;;;;;;;9.00;9.00;;;;;;;;5057332;28;51056;-64
2022/08/27 07:27:56;;;;;;;;;5.67;5.00;;;;;;;;5065470;28;51202;-64
2022/08/27 07:30:21;;;;;;;;;2.67;2.00;;;;;;;;5065427;27;51050;-64
2022/08/27 07:32:47;;;;;;;;;7.67;6.33;;;;;;;;5064070;28;51297;-64
2022/08/27 07:35:12;;;;;;;;;5.00;4.00;;;;;;;;5068989;28;51111;-64
2022/08/27 07:37:39;;;;;;;;;4.00;4.00;;;;;;;;5058506;28;51160;-64
2022/08/27 07:40:05;;;;;;;;;5.00;4.00;;;;;;;;5069204;28;51221;-64
2022/08/27 07:45:14;;;;;;;;;5.00;5.00;;;;;;;;5073278;28;50985;-65
2022/08/27 07:47:39;;;;;;;;;6.00;5.33;;;;;;;;5106931;27;51104;-65
2022/08/27 07:50:05;;;;;;;;;3.67;3.67;;;;;;;;5073934;28;51029;-65
2022/08/27 07:52:30;;;;;;;;;2.67;2.67;;;;;;;;5106690;27;51110;-65
2022/08/27 07:54:56;;;;;;;;;7.00;7.00;;;;;;;;5063844;28;51065;-65
2022/08/27 07:57:21;;;;;;;;;4.33;4.33;;;;;;;;5068425;28;51048;-65
2022/08/27 07:59:47;;;;;;;;;4.00;3.00;;;;;;;;5074199;27;51159;-64
2022/08/27 08:02:12;;;;;;;;;6.33;5.67;;;;;;;;5075721;27;51123;-64
2022/08/27 08:04:37;;;;;;;;;5.33;5.33;;;;;;;;5080526;27;51085;-64
2022/08/27 08:07:03;;;;;;;;;6.67;6.00;;;;;;;;5070709;27;51330;-65
2022/08/27 08:09:29;;;;;;;;;5.00;5.00;;;;;;;;5053485;28;51079;-64
2022/08/27 08:11:54;;;;;;;;;6.67;5.00;;;;;;;;5063918;28;51012;-64
2022/08/27 08:14:20;;;;;;;;;5.67;5.67;;;;;;;;5070525;28;51090;-64
2022/08/27 08:16:45;;;;;;;;;5.67;5.33;;;;;;;;5075408;27;50881;-66
2022/08/27 08:19:10;;;;;;;;;4.33;4.00;;;;;;;;5075062;27;50799;-64
2022/08/27 08:21:37;;;;;;;;;7.00;6.33;;;;;;;;5069427;28;52099;-65
2022/08/27 08:24:02;;;;;;;;;4.67;4.67;;;;;;;;5068571;27;51179;-64
2022/08/27 08:26:28;;;;;;;;;7.00;7.00;;;;;;;;5068849;27;51228;-67
2022/08/27 08:28:53;;;;;;;;;4.67;4.00;;;;;;;;5073148;27;51426;-64
2022/08/27 08:31:18;;;;;;;;;5.33;5.33;;;;;;;;5066566;27;51011;-65
2022/08/27 08:33:45;;;;;;;;;5.33;5.00;;;;;;;;5059343;28;51183;-65
2022/08/27 08:36:12;;;;;;;;;7.00;5.67;;;;;;;;5071273;28;51082;-64
2022/08/27 08:38:38;;;;;;;;;4.00;3.33;;;;;;;;5061317;28;51080;-64
2022/08/27 08:41:05;;;;;;;;;2.00;2.00;;;;;;;;5068341;27;52128;-65
2022/08/27 08:43:37;;;;;;;;;4.00;4.00;;;;;;;;5066638;27;51118;-67
2022/08/27 08:46:25;;;;;;;;;4.00;4.00;;;;;;;;5070653;28;51999;-67
2022/08/27 08:48:54;;;;;;;;;5.00;4.67;;;;;;;;5059933;28;51270;-66
2022/08/27 08:51:31;;;;;;;;;3.00;3.00;;;;;;;;5067792;27;51471;-64
2022/08/27 08:53:58;;;;;;;;;3.67;3.33;;;;;;;;5060374;27;51244;-65
2022/08/27 08:56:44;;;;;;;;;5.00;5.00;;;;;;;;5061264;27;51139;-65
2022/08/27 08:59:26;;;;;;;;;5.00;5.00;;;;;;;;5060019;27;51872;-65
2022/08/27 09:01:53;;;;;;;;;5.33;5.33;;;;;;;;5063603;27;51349;-65
2022/08/27 09:04:18;;;;;;;;;6.00;5.00;;;;;;;;5064256;28;50909;-66
2022/08/27 09:06:52;;;;;;;;;6.00;5.33;;;;;;;;5063435;27;51241;-65
2022/08/27 09:09:20;;;;;;;;;4.67;4.33;;;;;;;;5065142;28;51492;-66
2022/08/27 09:11:54;;;;;;;;;6.00;5.00;;;;;;;;5067049;28;52898;-66
2022/08/27 09:14:34;;;;;;;;;4.00;4.00;;;;;;;;5068024;28;51512;-65
2022/08/27 09:17:00;;;;;;;;;4.00;4.00;;;;;;;;5062121;27;52073;-66
2022/08/27 09:19:26;;;;;;;;;6.00;5.00;;;;;;;;5068391;28;51332;-66
2022/08/27 09:22:04;;;;;;;;;5.33;5.00;;;;;;;;5065282;28;52469;-66
2022/08/27 09:24:48;;;;;;;;;2.33;2.33;;;;;;;;5069383;28;50921;-65
2022/08/27 09:27:14;;;;;;;;;4.00;3.00;;;;;;;;5069350;28;51072;-66
2022/08/27 09:29:47;;;;;;;;;3.33;3.33;;;;;;;;5067964;28;50942;-66
2022/08/27 09:32:12;;;;;;;;;3.00;3.00;;;;;;;;5053336;28;53165;-67
2022/08/27 09:34:40;;;;;;;;;3.00;3.00;;;;;;;;5068841;28;51278;-67
2022/08/27 09:37:09;;;;;;;;;4.00;4.00;;;;;;;;5069836;28;51229;-65
2022/08/27 09:39:40;;;;;;;;;5.00;4.00;;;;;;;;5074169;28;50991;-66
2022/08/27 09:42:05;;;;;;;;;4.33;4.00;;;;;;;;5062041;28;50935;-66
2022/08/27 09:44:31;;;;;;;;;3.00;3.00;;;;;;;;5070823;28;51660;-66
2022/08/27 09:46:58;;;;;;;;;3.67;3.67;;;;;;;;5068898;27;51215;-66
2022/08/27 09:49:25;;;;;;;;;3.00;3.00;;;;;;;;5073705;28;50987;-66
2022/08/27 09:51:51;;;;;;;;;3.33;3.00;;;;;;;;5069243;28;51104;-64
2022/08/27 09:54:26;;;;;;;;;4.00;4.00;;;;;;;;5071935;28;52004;-66
2022/08/27 09:56:53;;;;;;;;;3.00;3.00;;;;;;;;5072564;28;51027;-66
2022/08/27 09:59:24;;;;;;;;;3.00;3.00;;;;;;;;5073816;28;50889;-67
2022/08/27 10:02:08;;;;;;;;;4.00;4.00;;;;;;;;5074677;27;52299;-66
2022/08/27 10:04:36;;;;;;;;;4.00;4.00;;;;;;;;5084956;27;51006;-66
2022/08/27 10:07:16;;;;;;;;;5.00;3.00;;;;;;;;5072232;27;50946;-66
2022/08/27 10:09:48;;;;;;;;;3.00;3.00;;;;;;;;5066435;28;51057;-66
2022/08/27 10:12:27;;;;;;;;;3.00;3.00;;;;;;;;5072601;28;52180;-66
2022/08/27 10:14:54;;;;;;;;;2.00;2.00;;;;;;;;5072444;28;51087;-66
2022/08/27 10:17:27;;;;;;;;;4.00;4.00;;;;;;;;5065210;27;51171;-66
2022/08/27 10:20:06;;;;;;;;;4.00;4.00;;;;;;;;5077277;27;51393;-67
2022/08/27 10:22:31;;;;;;;;;4.00;4.00;;;;;;;;5067709;28;52151;-66
2022/08/27 10:25:12;;;;;;;;;4.33;4.33;;;;;;;;5064189;27;51014;-66
2022/08/27 10:27:50;;;;;;;;;2.33;2.33;;;;;;;;5067363;27;51423;-66
2022/08/27 10:30:18;;;;;;;;;2.67;2.67;;;;;;;;5075790;27;51518;-65
2022/08/27 10:32:54;;;;;;;;;4.67;4.67;;;;;;;;5079430;27;51263;-66
2022/08/27 10:35:22;;;;;;;;;4.67;4.67;;;;;;;;5068741;27;51118;-66
2022/08/27 10:37:53;;;;;;;;;3.67;3.67;;;;;;;;5064649;27;51187;-66
2022/08/27 10:40:28;;;;;;;;;3.67;2.00;;;;;;;;5078979;27;51310;-68
2022/08/27 10:43:09;;;;;;;;;5.00;4.00;;;;;;;;5073176;27;51826;-66
2022/08/27 10:45:43;;;;;;;;;4.67;4.00;;;;;;;;5095478;27;51168;-65
2022/08/27 10:48:23;;;;;;;;;0.00;0.00;;;;;;;;5070988;27;51189;-67
2022/08/27 10:50:49;;;;;;;;;6.67;6.00;;;;;;;;5067268;27;51070;-66
2022/08/27 10:53:17;;;;;;;;;5.00;5.00;;;;;;;;5063615;27;51695;-66
2022/08/27 10:55:50;;;;;;;;;5.00;5.00;;;;;;;;5069632;27;51175;-66
2022/08/27 10:58:24;;;;;;;;;4.33;3.33;;;;;;;;5066455;27;51360;-66
2022/08/27 11:00:55;;;;;;;;;6.00;5.00;;;;;;;;5066357;27;51313;-66
2022/08/27 11:03:32;;;;;;;;;5.00;5.00;;;;;;;;5065626;27;51254;-68
2022/08/27 11:05:59;;;;;;;;;3.33;3.33;;;;;;;;5073098;27;51151;-68
2022/08/27 11:08:31;;;;;;;;;4.00;4.00;;;;;;;;5061013;27;51262;-68
2022/08/27 11:11:04;;;;;;;;;4.33;4.33;;;;;;;;5055311;27;51092;-68
2022/08/27 11:13:32;;;;;;;;;5.00;5.00;;;;;;;;5060959;27;51708;-68
2022/08/27 11:15:58;;;;;;;;;4.00;4.00;;;;;;;;5068517;27;50979;-69
2022/08/27 11:18:41;;;;;;;;;2.00;2.00;;;;;;;;5063102;27;51253;-67
2022/08/27 11:21:12;;;;;;;;;4.00;4.00;;;;;;;;5073689;27;51093;-67
2022/08/27 11:23:44;;;;;;;;;4.00;4.00;;;;;;;;5073510;27;51583;-69
2022/08/27 11:26:09;;;;;;;;;2.00;2.00;;;;;;;;5061589;27;51100;-68
2022/08/27 11:28:38;;;;;;;;;4.00;4.00;;;;;;;;5058359;27;50862;-68
2022/08/27 11:31:12;;;;;;;;;4.00;4.00;;;;;;;;5071045;28;51177;-69
2022/08/27 11:33:41;;;;;;;;;4.33;4.33;;;;;;;;5071563;27;52138;-68
2022/08/27 11:36:15;;;;;;;;;4.00;4.00;;;;;;;;5071570;28;50937;-68
2022/08/27 11:38:44;;;;;;;;;4.00;4.00;;;;;;;;5071978;27;51053;-68
2022/08/27 11:41:13;;;;;;;;;2.00;2.00;;;;;;;;5065991;27;51116;-69
2022/08/27 11:43:39;;;;;;;;;5.00;4.00;;;;;;;;5060453;27;51171;-69
2022/08/27 11:46:06;;;;;;;;;4.00;4.00;;;;;;;;5048398;28;51242;-67
2022/08/27 11:48:34;;;;;;;;;4.33;4.33;;;;;;;;5053571;28;51188;-66
2022/08/27 11:51:01;;;;;;;;;7.33;6.33;;;;;;;;5061573;28;50911;-64
2022/08/27 11:53:37;;;;;;;;;3.00;2.67;;;;;;;;5070819;27;51841;-64
2022/08/27 11:56:10;;;;;;;;;3.33;3.33;;;;;;;;5070445;28;51210;-64
2022/08/27 11:58:35;;;;;;;;;4.67;4.67;;;;;;;;5052415;28;51072;-64
2022/08/27 12:01:01;;;;;;;;;4.00;3.00;;;;;;;;5071373;28;50890;-64
2022/08/27 12:03:31;;;;;;;;;3.00;3.00;;;;;;;;5077569;27;51101;-64
2022/08/27 12:05:56;;;;;;;;;6.00;4.67;;;;;;;;5069900;28;51144;-64
2022/08/27 12:08:22;;;;;;;;;3.67;3.33;;;;;;;;5070903;27;50867;-63
2022/08/27 12:11:06;;;;;;;;;4.33;4.33;;;;;;;;5069163;28;50959;-64
2022/08/27 12:13:36;;;;;;;;;4.33;4.00;;;;;;;;5057197;27;52020;-65
2022/08/27 12:16:05;;;;;;;;;3.00;3.00;;;;;;;;5072667;27;50963;-65
2022/08/27 12:18:53;;;;;;;;;4.00;4.00;;;;;;;;5075052;28;51017;-66
2022/08/27 12:21:19;;;;;;;;;3.00;3.00;;;;;;;;5073214;27;51109;-64
2022/08/27 12:24:03;;;;;;;;;6.00;5.00;;;;;;;;5063755;28;53214;-65
2022/08/27 12:26:33;;;;;;;;;4.00;4.00;;;;;;;;5069860;28;51266;-65
2022/08/27 12:29:17;;;;;;;;;6.00;6.00;;;;;;;;5071369;28;51187;-65
2022/08/27 12:31:44;;;;;;;;;5.00;4.33;;;;;;;;5064240;27;51512;-65
2022/08/27 12:34:24;;;;;;;;;4.00;4.00;;;;;;;;5059951;28;51857;-66
2022/08/27 12:36:51;;;;;;;;;4.00;3.67;;;;;;;;5068770;28;51083;-64
2022/08/27 12:39:19;;;;;;;;;5.67;5.00;;;;;;;;5067799;27;51131;-65
2022/08/27 12:41:45;;;;;;;;;5.67;5.00;;;;;;;;5072200;28;51098;-65
2022/08/27 12:44:12;;;;;;;;;4.00;4.00;;;;;;;;5073582;27;51012;-64
2022/08/27 12:46:43;;;;;;;;;4.00;4.00;;;;;;;;5082861;27;51067;-64
2022/08/27 12:49:09;;;;;;;;;3.67;3.67;;;;;;;;5076925;27;51089;-64
2022/08/27 12:51:36;;;;;;;;;4.00;4.00;;;;;;;;5068561;27;51234;-65
2022/08/27 12:54:20;;;;;;;;;4.67;4.00;;;;;;;;5071531;28;53375;-64
2022/08/27 12:56:57;;;;;;;;;3.33;3.33;;;;;;;;5073709;27;50961;-64
2022/08/27 12:59:25;;;;;;;;;4.33;4.33;;;;;;;;5073542;28;51025;-64
2022/08/27 13:01:59;;;;;;;;;2.33;2.33;;;;;;;;5073551;27;50987;-65
2022/08/27 13:04:26;;;;;;;;;7.00;6.67;;;;;;;;5076183;27;51014;-64
2022/08/27 13:06:51;;;;;;;;;3.67;2.67;;;;;;;;5069650;27;50980;-63
2022/08/27 13:09:24;;;;;;;;;4.33;4.33;;;;;;;;5072231;28;51466;-63
2022/08/27 13:11:55;;;;;;;;;5.67;5.00;;;;;;;;5073276;27;50939;-65
2022/08/27 13:14:21;;;;;;;;;4.67;4.67;;;;;;;;5072928;27;51131;-64
2022/08/27 13:16:52;;;;;;;;;4.00;4.00;;;;;;;;5073577;27;51096;-64
2022/08/27 13:19:23;;;;;;;;;3.00;3.00;;;;;;;;5073133;27;50968;-63
2022/08/27 13:21:49;;;;;;;;;4.00;4.00;;;;;;;;5073415;28;51285;-64
2022/08/27 13:24:18;;;;;;;;;5.00;4.00;;;;;;;;5072786;28;52836;-64
2022/08/27 13:26:46;;;;;;;;;5.33;4.33;;;;;;;;5072640;28;51125;-65
2022/08/27 13:29:12;;;;;;;;;4.00;4.00;;;;;;;;5073354;28;50945;-65
2022/08/27 13:31:37;;;;;;;;;2.33;2.33;;;;;;;;5072898;28;50883;-64
2022/08/27 13:34:04;;;;;;;;;5.00;5.00;;;;;;;;5070614;27;52642;-64
2022/08/27 13:36:31;;;;;;;;;4.33;4.33;;;;;;;;5073043;28;51043;-64
2022/08/27 13:38:58;;;;;;;;;3.00;3.00;;;;;;;;5072608;28;50908;-64
2022/08/27 13:41:36;;;;;;;;;3.00;3.00;;;;;;;;5071435;28;51071;-65
2022/08/27 13:44:07;;;;;;;;;4.00;4.00;;;;;;;;5072045;28;51043;-64
2022/08/27 13:46:32;;;;;;;;;3.00;3.00;;;;;;;;5071376;28;51073;-64
2022/08/27 13:48:59;;;;;;;;;3.00;3.00;;;;;;;;5071241;28;51166;-66
2022/08/27 13:51:26;;;;;;;;;2.33;2.00;;;;;;;;5071789;27;51120;-64
2022/08/27 13:56:37;;;;;;;;;3.00;3.00;;;;;;;;5072260;28;51110;-64
2022/08/27 13:59:11;;;;;;;;;4.00;4.00;;;;;;;;5072359;28;50964;-64
2022/08/27 14:01:37;;;;;;;;;5.00;5.00;;;;;;;;5071296;28;50905;-66
2022/08/27 14:04:04;;;;;;;;;4.00;4.00;;;;;;;;5072080;27;53223;-64
2022/08/27 14:06:37;;;;;;;;;3.67;3.67;;;;;;;;5063409;28;50879;-64
2022/08/27 14:09:13;;;;;;;;;4.00;4.00;;;;;;;;5065229;28;50906;-65
2022/08/27 14:11:38;;;;;;;;;3.33;3.33;;;;;;;;5066130;28;51217;-64
2022/08/27 14:14:03;;;;;;;;;3.00;3.00;;;;;;;;5067107;27;51902;-63
2022/08/27 14:16:31;;;;;;;;;2.00;2.00;;;;;;;;5066262;28;51002;-66
2022/08/27 14:19:02;;;;;;;;;2.00;1.33;;;;;;;;5071494;28;51062;-64
2022/08/27 14:21:28;;;;;;;;;4.00;3.67;;;;;;;;5060832;27;51162;-65
2022/08/27 14:23:53;;;;;;;;;3.00;3.00;;;;;;;;5070735;28;52255;-64
2022/08/27 14:26:19;;;;;;;;;2.67;2.67;;;;;;;;5058611;27;50960;-64
2022/08/27 14:28:45;;;;;;;;;5.00;5.00;;;;;;;;5066108;28;51033;-65
2022/08/27 14:31:10;;;;;;;;;5.00;4.00;;;;;;;;5066597;28;51342;-64
2022/08/27 14:33:36;;;;;;;;;3.00;3.00;;;;;;;;5072032;27;51833;-64
2022/08/27 14:36:01;;;;;;;;;8.33;7.67;;;;;;;;5071717;27;51036;-63
2022/08/27 14:38:30;;;;;;;;;3.67;3.00;;;;;;;;5066410;28;51336;-65
2022/08/27 14:40:57;;;;;;;;;6.00;5.00;;;;;;;;5066862;27;50951;-64
2022/08/27 14:43:23;;;;;;;;;4.67;4.67;;;;;;;;5059343;28;51941;-65
2022/08/27 14:45:50;;;;;;;;;4.00;4.00;;;;;;;;5070703;27;51203;-64
2022/08/27 14:48:24;;;;;;;;;2.00;2.00;;;;;;;;5071214;27;51067;-64
2022/08/27 14:50:49;;;;;;;;;2.00;2.00;;;;;;;;5068969;27;51222;-64
2022/08/27 14:53:16;;;;;;;;;3.00;2.67;;;;;;;;5079140;27;51671;-65
2022/08/27 14:55:42;;;;;;;;;4.00;4.00;;;;;;;;5067896;28;51087;-65